Terminal Aerodrome Forecast
Issued by NWS

Home | Current Version | Previous Version | Text Only | Print | Product List | Glossary On
Versions: 1 2 3 4 5 6 7 8 9 10 11 12 13
485
FTUS43 KICT 051737
TAFHUT
TAF
KHUT 051737Z 0518/0618 VRB04KT P6SM SCT050 BKN120
     FM060000 28007KT P6SM SCT070 BKN120
     FM060600 32007KT P6SM SCT100=

USA.gov is the U.S. government's official web portal to all federal, state and local government web resources and services.